sensor_id;sensor_type;location;lat;lon;timestamp;temperature;humidity
21612;DHT22;47005;52.292;13.452;2023-04-03T00:00:05;4.10;95.00
21612;DHT22;47005;52.292;13.452;2023-04-03T00:02:35;4.10;94.90
21612;DHT22;47005;52.292;13.452;2023-04-03T00:05:01;4.10;94.90
21612;DHT22;47005;52.292;13.452;2023-04-03T00:07:26;4.10;94.90
21612;DHT22;47005;52.292;13.452;2023-04-03T00:09:52;4.10;94.90
21612;DHT22;47005;52.292;13.452;2023-04-03T00:12:18;4.10;94.90
21612;DHT22;47005;52.292;13.452;2023-04-03T00:14:43;4.10;94.90
21612;DHT22;47005;52.292;13.452;2023-04-03T00:17:09;4.00;95.00
21612;DHT22;47005;52.292;13.452;2023-04-03T00:19:35;4.00;94.90
21612;DHT22;47005;52.292;13.452;2023-04-03T00:22:00;4.00;94.90
21612;DHT22;47005;52.292;13.452;2023-04-03T00:24:26;4.00;94.90
21612;DHT22;47005;52.292;13.452;2023-04-03T00:26:54;4.00;95.00
21612;DHT22;47005;52.292;13.452;2023-04-03T00:29:20;3.90;95.00
21612;DHT22;47005;52.292;13.452;2023-04-03T00:31:46;3.90;94.90
21612;DHT22;47005;52.292;13.452;2023-04-03T00:34:11;3.90;95.00
21612;DHT22;47005;52.292;13.452;2023-04-03T00:36:37;3.90;95.00
21612;DHT22;47005;52.292;13.452;2023-04-03T00:39:03;3.80;95.00
21612;DHT22;47005;52.292;13.452;2023-04-03T00:41:28;3.80;95.00
21612;DHT22;47005;52.292;13.452;2023-04-03T00:43:54;3.80;94.90
21612;DHT22;47005;52.292;13.452;2023-04-03T00:46:20;3.80;94.90
21612;DHT22;47005;52.292;13.452;2023-04-03T00:48:47;3.80;94.90
21612;DHT22;47005;52.292;13.452;2023-04-03T00:51:23;3.80;94.90
21612;DHT22;47005;52.292;13.452;2023-04-03T00:53:56;3.80;95.00
21612;DHT22;47005;52.292;13.452;2023-04-03T00:56:25;3.80;95.10
21612;DHT22;47005;52.292;13.452;2023-04-03T00:58:56;3.70;95.00
21612;DHT22;47005;52.292;13.452;2023-04-03T01:01:26;3.70;95.00
21612;DHT22;47005;52.292;13.452;2023-04-03T01:03:52;3.70;95.00
21612;DHT22;47005;52.292;13.452;2023-04-03T01:06:23;3.70;94.90
21612;DHT22;47005;52.292;13.452;2023-04-03T01:08:57;3.70;94.90
21612;DHT22;47005;52.292;13.452;2023-04-03T01:11:24;3.70;94.90
21612;DHT22;47005;52.292;13.452;2023-04-03T01:13:51;3.70;94.80
21612;DHT22;47005;52.292;13.452;2023-04-03T01:16:17;3.60;94.80
21612;DHT22;47005;52.292;13.452;2023-04-03T01:18:44;3.60;94.90
21612;DHT22;47005;52.292;13.452;2023-04-03T01:24:16;3.60;94.80
21612;DHT22;47005;52.292;13.452;2023-04-03T01:26:46;3.60;94.80
21612;DHT22;47005;52.292;13.452;2023-04-03T01:29:11;3.60;94.80
21612;DHT22;47005;52.292;13.452;2023-04-03T01:31:56;3.60;94.70
21612;DHT22;47005;52.292;13.452;2023-04-03T01:34:23;3.60;94.70
21612;DHT22;47005;52.292;13.452;2023-04-03T01:36:49;3.60;94.70
21612;DHT22;47005;52.292;13.452;2023-04-03T01:39:19;3.60;94.80
21612;DHT22;47005;52.292;13.452;2023-04-03T01:41:45;3.50;94.80
21612;DHT22;47005;52.292;13.452;2023-04-03T01:44:11;3.50;94.80
21612;DHT22;47005;52.292;13.452;2023-04-03T01:46:37;3.50;94.80
21612;DHT22;47005;52.292;13.452;2023-04-03T01:49:04;3.50;94.80
21612;DHT22;47005;52.292;13.452;2023-04-03T01:51:30;3.50;94.80
21612;DHT22;47005;52.292;13.452;2023-04-03T01:53:56;3.40;94.70
21612;DHT22;47005;52.292;13.452;2023-04-03T01:56:22;3.40;94.70
21612;DHT22;47005;52.292;13.452;2023-04-03T01:58:47;3.40;94.70
21612;DHT22;47005;52.292;13.452;2023-04-03T02:01:13;3.40;94.80
21612;DHT22;47005;52.292;13.452;2023-04-03T02:03:39;3.40;94.80
21612;DHT22;47005;52.292;13.452;2023-04-03T02:06:05;3.40;94.80
21612;DHT22;47005;52.292;13.452;2023-04-03T02:08:30;3.40;94.90
21612;DHT22;47005;52.292;13.452;2023-04-03T02:10:56;3.30;94.80
21612;DHT22;47005;52.292;13.452;2023-04-03T02:13:22;3.30;94.80
21612;DHT22;47005;52.292;13.452;2023-04-03T02:15:48;3.30;94.90
21612;DHT22;47005;52.292;13.452;2023-04-03T02:18:14;3.30;94.80
21612;DHT22;47005;52.292;13.452;2023-04-03T02:20:40;3.30;94.80
21612;DHT22;47005;52.292;13.452;2023-04-03T02:23:06;3.30;94.80
21612;DHT22;47005;52.292;13.452;2023-04-03T02:25:32;3.20;94.70
21612;DHT22;47005;52.292;13.452;2023-04-03T02:27:57;3.20;94.80
21612;DHT22;47005;52.292;13.452;2023-04-03T02:30:23;3.10;94.90
21612;DHT22;47005;52.292;13.452;2023-04-03T02:32:49;3.10;95.00
21612;DHT22;47005;52.292;13.452;2023-04-03T02:35:15;3.20;95.00
21612;DHT22;47005;52.292;13.452;2023-04-03T02:37:40;3.10;94.60
21612;DHT22;47005;52.292;13.452;2023-04-03T02:40:06;3.10;95.00
21612;DHT22;47005;52.292;13.452;2023-04-03T02:42:32;3.10;95.10
21612;DHT22;47005;52.292;13.452;2023-04-03T02:44:58;3.10;95.10
21612;DHT22;47005;52.292;13.452;2023-04-03T02:47:26;3.10;95.10
21612;DHT22;47005;52.292;13.452;2023-04-03T02:49:52;3.10;95.10
21612;DHT22;47005;52.292;13.452;2023-04-03T02:52:18;3.10;95.10
21612;DHT22;47005;52.292;13.452;2023-04-03T02:54:44;3.10;95.20
21612;DHT22;47005;52.292;13.452;2023-04-03T02:57:10;3.00;95.20
21612;DHT22;47005;52.292;13.452;2023-04-03T02:59:36;3.00;95.30
21612;DHT22;47005;52.292;13.452;2023-04-03T03:02:06;3.00;95.30
21612;DHT22;47005;52.292;13.452;2023-04-03T03:04:32;3.00;95.40
21612;DHT22;47005;52.292;13.452;2023-04-03T03:06:58;3.00;95.40
21612;DHT22;47005;52.292;13.452;2023-04-03T03:09:23;3.00;95.40
21612;DHT22;47005;52.292;13.452;2023-04-03T03:11:53;3.00;95.40
21612;DHT22;47005;52.292;13.452;2023-04-03T03:14:19;3.00;95.30
21612;DHT22;47005;52.292;13.452;2023-04-03T03:16:44;3.00;95.40
21612;DHT22;47005;52.292;13.452;2023-04-03T03:19:10;2.90;95.40
21612;DHT22;47005;52.292;13.452;2023-04-03T03:21:36;2.90;95.50
21612;DHT22;47005;52.292;13.452;2023-04-03T03:24:02;2.90;95.50
21612;DHT22;47005;52.292;13.452;2023-04-03T03:26:27;2.90;95.50
21612;DHT22;47005;52.292;13.452;2023-04-03T03:28:53;2.90;95.50
21612;DHT22;47005;52.292;13.452;2023-04-03T03:31:19;2.90;95.40
21612;DHT22;47005;52.292;13.452;2023-04-03T03:33:45;2.90;95.50
21612;DHT22;47005;52.292;13.452;2023-04-03T03:36:10;2.90;95.50
21612;DHT22;47005;52.292;13.452;2023-04-03T03:38:36;2.90;95.50
21612;DHT22;47005;52.292;13.452;2023-04-03T03:41:02;2.90;95.60
21612;DHT22;47005;52.292;13.452;2023-04-03T03:43:28;2.90;95.70
21612;DHT22;47005;52.292;13.452;2023-04-03T03:45:54;2.90;95.70
21612;DHT22;47005;52.292;13.452;2023-04-03T03:48:21;2.90;95.80
21612;DHT22;47005;52.292;13.452;2023-04-03T03:50:47;2.90;95.70
21612;DHT22;47005;52.292;13.452;2023-04-03T03:53:12;2.90;95.80
21612;DHT22;47005;52.292;13.452;2023-04-03T03:55:38;2.80;95.90
21612;DHT22;47005;52.292;13.452;2023-04-03T03:58:04;2.80;95.80
21612;DHT22;47005;52.292;13.452;2023-04-03T04:00:29;2.80;95.90
21612;DHT22;47005;52.292;13.452;2023-04-03T04:02:55;2.80;95.90
21612;DHT22;47005;52.292;13.452;2023-04-03T04:05:21;2.80;96.10
21612;DHT22;47005;52.292;13.452;2023-04-03T04:07:47;2.80;96.20
21612;DHT22;47005;52.292;13.452;2023-04-03T04:10:13;2.70;96.10
21612;DHT22;47005;52.292;13.452;2023-04-03T04:12:39;2.70;96.20
21612;DHT22;47005;52.292;13.452;2023-04-03T04:15:05;2.70;96.20
21612;DHT22;47005;52.292;13.452;2023-04-03T04:17:31;2.70;96.20
21612;DHT22;47005;52.292;13.452;2023-04-03T04:19:57;2.70;96.20
21612;DHT22;47005;52.292;13.452;2023-04-03T04:22:22;2.70;96.20
21612;DHT22;47005;52.292;13.452;2023-04-03T04:24:48;2.70;96.30
21612;DHT22;47005;52.292;13.452;2023-04-03T04:27:14;2.70;96.30
21612;DHT22;47005;52.292;13.452;2023-04-03T04:29:41;2.70;96.40
21612;DHT22;47005;52.292;13.452;2023-04-03T04:32:07;2.70;96.40
21612;DHT22;47005;52.292;13.452;2023-04-03T04:34:34;2.70;96.40
21612;DHT22;47005;52.292;13.452;2023-04-03T04:36:59;2.70;96.40
21612;DHT22;47005;52.292;13.452;2023-04-03T04:39:28;2.70;96.30
21612;DHT22;47005;52.292;13.452;2023-04-03T04:41:53;2.70;96.30
21612;DHT22;47005;52.292;13.452;2023-04-03T04:44:20;2.60;96.50
21612;DHT22;47005;52.292;13.452;2023-04-03T04:46:45;2.70;96.90
21612;DHT22;47005;52.292;13.452;2023-04-03T04:49:11;2.70;96.50
21612;DHT22;47005;52.292;13.452;2023-04-03T04:51:37;2.70;96.60
21612;DHT22;47005;52.292;13.452;2023-04-03T04:54:02;2.60;96.60
21612;DHT22;47005;52.292;13.452;2023-04-03T04:56:28;2.60;96.60
21612;DHT22;47005;52.292;13.452;2023-04-03T04:58:53;2.60;96.70
21612;DHT22;47005;52.292;13.452;2023-04-03T05:01:19;2.60;96.70
21612;DHT22;47005;52.292;13.452;2023-04-03T05:03:45;2.60;96.70
21612;DHT22;47005;52.292;13.452;2023-04-03T05:06:11;2.60;96.70
21612;DHT22;47005;52.292;13.452;2023-04-03T05:08:36;2.60;96.60
21612;DHT22;47005;52.292;13.452;2023-04-03T05:11:02;2.60;96.50
21612;DHT22;47005;52.292;13.452;2023-04-03T05:13:28;2.60;96.60
21612;DHT22;47005;52.292;13.452;2023-04-03T05:15:53;2.60;97.00
21612;DHT22;47005;52.292;13.452;2023-04-03T05:18:19;2.60;97.00
21612;DHT22;47005;52.292;13.452;2023-04-03T05:20:45;2.60;96.90
21612;DHT22;47005;52.292;13.452;2023-04-03T05:23:11;2.70;97.00
21612;DHT22;47005;52.292;13.452;2023-04-03T05:25:43;2.70;97.00
21612;DHT22;47005;52.292;13.452;2023-04-03T05:28:12;2.70;97.10
21612;DHT22;47005;52.292;13.452;2023-04-03T05:30:38;2.70;97.10
21612;DHT22;47005;52.292;13.452;2023-04-03T05:33:03;2.70;97.10
21612;DHT22;47005;52.292;13.452;2023-04-03T05:35:29;2.70;97.10
21612;DHT22;47005;52.292;13.452;2023-04-03T05:37:56;2.70;97.00
21612;DHT22;47005;52.292;13.452;2023-04-03T05:40:21;2.70;97.10
21612;DHT22;47005;52.292;13.452;2023-04-03T05:42:53;2.80;97.20
21612;DHT22;47005;52.292;13.452;2023-04-03T05:45:19;2.80;97.30
21612;DHT22;47005;52.292;13.452;2023-04-03T05:47:44;2.80;97.20
21612;DHT22;47005;52.292;13.452;2023-04-03T05:50:10;2.80;97.30
21612;DHT22;47005;52.292;13.452;2023-04-03T05:52:38;2.80;97.20
21612;DHT22;47005;52.292;13.452;2023-04-03T05:55:05;2.80;97.20
21612;DHT22;47005;52.292;13.452;2023-04-03T05:57:31;2.90;97.20
21612;DHT22;47005;52.292;13.452;2023-04-03T05:59:56;2.90;97.40
21612;DHT22;47005;52.292;13.452;2023-04-03T06:02:24;2.90;97.20
21612;DHT22;47005;52.292;13.452;2023-04-03T06:04:52;2.90;97.40
21612;DHT22;47005;52.292;13.452;2023-04-03T06:07:20;3.00;97.50
21612;DHT22;47005;52.292;13.452;2023-04-03T06:09:48;3.00;97.40
21612;DHT22;47005;52.292;13.452;2023-04-03T06:12:23;3.00;97.40
21612;DHT22;47005;52.292;13.452;2023-04-03T06:14:49;3.10;97.50
21612;DHT22;47005;52.292;13.452;2023-04-03T06:17:16;3.10;97.30
21612;DHT22;47005;52.292;13.452;2023-04-03T06:19:44;3.10;97.40
21612;DHT22;47005;52.292;13.452;2023-04-03T06:22:10;3.10;97.70
21612;DHT22;47005;52.292;13.452;2023-04-03T06:24:37;3.10;97.30
21612;DHT22;47005;52.292;13.452;2023-04-03T06:27:03;3.20;97.30
21612;DHT22;47005;52.292;13.452;2023-04-03T06:29:29;3.20;97.50
21612;DHT22;47005;52.292;13.452;2023-04-03T06:31:55;3.20;97.50
21612;DHT22;47005;52.292;13.452;2023-04-03T06:34:20;3.20;97.40
21612;DHT22;47005;52.292;13.452;2023-04-03T06:36:47;3.30;97.20
21612;DHT22;47005;52.292;13.452;2023-04-03T06:39:17;3.30;96.90
21612;DHT22;47005;52.292;13.452;2023-04-03T06:41:43;3.30;97.00
21612;DHT22;47005;52.292;13.452;2023-04-03T06:44:09;3.40;97.10
21612;DHT22;47005;52.292;13.452;2023-04-03T06:46:37;3.40;97.00
21612;DHT22;47005;52.292;13.452;2023-04-03T06:49:03;3.40;96.80
21612;DHT22;47005;52.292;13.452;2023-04-03T06:51:29;3.40;96.70
21612;DHT22;47005;52.292;13.452;2023-04-03T06:53:57;3.40;96.80
21612;DHT22;47005;52.292;13.452;2023-04-03T06:56:24;3.50;96.70
21612;DHT22;47005;52.292;13.452;2023-04-03T06:58:52;3.50;96.30
21612;DHT22;47005;52.292;13.452;2023-04-03T07:01:20;3.50;95.90
21612;DHT22;47005;52.292;13.452;2023-04-03T07:03:47;3.50;96.20
21612;DHT22;47005;52.292;13.452;2023-04-03T07:06:17;3.60;96.20
21612;DHT22;47005;52.292;13.452;2023-04-03T07:08:44;3.60;96.20
21612;DHT22;47005;52.292;13.452;2023-04-03T07:11:11;3.60;96.00
21612;DHT22;47005;52.292;13.452;2023-04-03T07:13:37;3.60;95.30
21612;DHT22;47005;52.292;13.452;2023-04-03T07:16:04;3.60;94.20
21612;DHT22;47005;52.292;13.452;2023-04-03T07:18:31;3.60;94.80
21612;DHT22;47005;52.292;13.452;2023-04-03T07:20:57;3.60;94.50
21612;DHT22;47005;52.292;13.452;2023-04-03T07:23:23;3.70;94.20
21612;DHT22;47005;52.292;13.452;2023-04-03T07:25:50;3.70;93.90
21612;DHT22;47005;52.292;13.452;2023-04-03T07:28:19;3.70;94.40
21612;DHT22;47005;52.292;13.452;2023-04-03T07:30:50;3.80;94.00
21612;DHT22;47005;52.292;13.452;2023-04-03T07:33:21;3.80;93.60
21612;DHT22;47005;52.292;13.452;2023-04-03T07:35:48;3.80;93.60
21612;DHT22;47005;52.292;13.452;2023-04-03T07:38:14;3.80;93.60
21612;DHT22;47005;52.292;13.452;2023-04-03T07:40:40;3.90;93.20
21612;DHT22;47005;52.292;13.452;2023-04-03T07:43:10;3.90;93.30
21612;DHT22;47005;52.292;13.452;2023-04-03T07:45:36;3.90;93.30
21612;DHT22;47005;52.292;13.452;2023-04-03T07:48:05;3.90;93.00
21612;DHT22;47005;52.292;13.452;2023-04-03T07:50:31;4.00;93.70
21612;DHT22;47005;52.292;13.452;2023-04-03T07:52:58;4.00;93.50
21612;DHT22;47005;52.292;13.452;2023-04-03T07:55:24;4.00;93.30
21612;DHT22;47005;52.292;13.452;2023-04-03T07:57:50;4.10;93.30
21612;DHT22;47005;52.292;13.452;2023-04-03T08:00:17;4.10;93.40
21612;DHT22;47005;52.292;13.452;2023-04-03T08:02:45;4.20;92.30
21612;DHT22;47005;52.292;13.452;2023-04-03T08:05:19;4.20;92.30
21612;DHT22;47005;52.292;13.452;2023-04-03T08:07:45;4.30;92.40
21612;DHT22;47005;52.292;13.452;2023-04-03T08:10:14;4.40;91.70
21612;DHT22;47005;52.292;13.452;2023-04-03T08:12:40;4.40;91.80
21612;DHT22;47005;52.292;13.452;2023-04-03T08:15:07;4.50;91.40
21612;DHT22;47005;52.292;13.452;2023-04-03T08:17:34;4.50;91.30
21612;DHT22;47005;52.292;13.452;2023-04-03T08:20:00;4.60;91.50
21612;DHT22;47005;52.292;13.452;2023-04-03T08:22:29;4.70;91.80
21612;DHT22;47005;52.292;13.452;2023-04-03T08:24:54;4.70;90.60
21612;DHT22;47005;52.292;13.452;2023-04-03T08:27:20;4.80;90.10
21612;DHT22;47005;52.292;13.452;2023-04-03T08:29:46;4.80;90.50
21612;DHT22;47005;52.292;13.452;2023-04-03T08:32:11;4.90;90.40
21612;DHT22;47005;52.292;13.452;2023-04-03T08:34:37;4.90;90.30
21612;DHT22;47005;52.292;13.452;2023-04-03T08:37:05;5.00;89.50
21612;DHT22;47005;52.292;13.452;2023-04-03T08:39:31;5.00;88.50
21612;DHT22;47005;52.292;13.452;2023-04-03T08:41:59;5.00;86.70
21612;DHT22;47005;52.292;13.452;2023-04-03T08:49:51;5.00;89.40
21612;DHT22;47005;52.292;13.452;2023-04-03T08:52:22;5.00;88.40
21612;DHT22;47005;52.292;13.452;2023-04-03T08:55:02;5.10;88.60
21612;DHT22;47005;52.292;13.452;2023-04-03T08:57:39;5.10;89.60
21612;DHT22;47005;52.292;13.452;2023-04-03T09:02:50;5.10;88.40
21612;DHT22;47005;52.292;13.452;2023-04-03T09:05:19;5.10;87.90
21612;DHT22;47005;52.292;13.452;2023-04-03T09:07:58;5.10;87.90
21612;DHT22;47005;52.292;13.452;2023-04-03T09:10:29;5.10;88.00
21612;DHT22;47005;52.292;13.452;2023-04-03T09:15:57;5.20;88.30
21612;DHT22;47005;52.292;13.452;2023-04-03T09:18:30;5.30;88.60
21612;DHT22;47005;52.292;13.452;2023-04-03T09:21:17;5.30;87.70
21612;DHT22;47005;52.292;13.452;2023-04-03T09:23:58;5.30;86.80
21612;DHT22;47005;52.292;13.452;2023-04-03T09:26:30;5.40;87.00
21612;DHT22;47005;52.292;13.452;2023-04-03T09:29:00;5.40;86.30
21612;DHT22;47005;52.292;13.452;2023-04-03T09:31:36;5.50;86.90
21612;DHT22;47005;52.292;13.452;2023-04-03T09:34:07;5.50;85.90
21612;DHT22;47005;52.292;13.452;2023-04-03T09:37:07;5.50;85.70
21612;DHT22;47005;52.292;13.452;2023-04-03T09:39:52;5.50;85.10
21612;DHT22;47005;52.292;13.452;2023-04-03T09:42:23;5.60;85.50
21612;DHT22;47005;52.292;13.452;2023-04-03T09:45:02;5.60;84.20
21612;DHT22;47005;52.292;13.452;2023-04-03T09:47:33;5.60;83.90
21612;DHT22;47005;52.292;13.452;2023-04-03T09:50:28;5.60;84.40
21612;DHT22;47005;52.292;13.452;2023-04-03T09:52:54;5.70;84.60
21612;DHT22;47005;52.292;13.452;2023-04-03T09:55:25;5.70;83.70
21612;DHT22;47005;52.292;13.452;2023-04-03T09:57:58;5.70;84.40
21612;DHT22;47005;52.292;13.452;2023-04-03T10:00:35;5.70;83.60
21612;DHT22;47005;52.292;13.452;2023-04-03T10:03:02;5.70;83.50
21612;DHT22;47005;52.292;13.452;2023-04-03T10:10:48;5.80;85.50
21612;DHT22;47005;52.292;13.452;2023-04-03T10:13:19;5.90;83.30
21612;DHT22;47005;52.292;13.452;2023-04-03T10:15:51;6.00;83.90
21612;DHT22;47005;52.292;13.452;2023-04-03T10:20:48;6.10;81.70
21612;DHT22;47005;52.292;13.452;2023-04-03T10:23:21;6.10;83.00
21612;DHT22;47005;52.292;13.452;2023-04-03T10:42:12;6.50;82.70
21612;DHT22;47005;52.292;13.452;2023-04-03T10:51:22;6.60;80.80
21612;DHT22;47005;52.292;13.452;2023-04-03T10:58:26;6.60;80.20
21612;DHT22;47005;52.292;13.452;2023-04-03T11:00:59;6.60;80.70
21612;DHT22;47005;52.292;13.452;2023-04-03T11:03:36;6.70;79.60
21612;DHT22;47005;52.292;13.452;2023-04-03T11:06:08;6.70;79.50
21612;DHT22;47005;52.292;13.452;2023-04-03T11:11:31;6.80;80.10
21612;DHT22;47005;52.292;13.452;2023-04-03T11:14:03;6.80;79.90
21612;DHT22;47005;52.292;13.452;2023-04-03T11:16:36;6.80;80.40
21612;DHT22;47005;52.292;13.452;2023-04-03T11:19:52;6.80;79.70
21612;DHT22;47005;52.292;13.452;2023-04-03T11:24:54;6.80;79.80
21612;DHT22;47005;52.292;13.452;2023-04-03T11:27:24;6.80;78.70
21612;DHT22;47005;52.292;13.452;2023-04-03T11:29:53;6.80;78.80
21612;DHT22;47005;52.292;13.452;2023-04-03T11:32:49;6.80;79.80
21612;DHT22;47005;52.292;13.452;2023-04-03T11:35:26;6.90;82.00
21612;DHT22;47005;52.292;13.452;2023-04-03T11:37:53;6.90;81.80
21612;DHT22;47005;52.292;13.452;2023-04-03T11:40:34;6.90;80.00
21612;DHT22;47005;52.292;13.452;2023-04-03T11:43:28;6.90;81.20
21612;DHT22;47005;52.292;13.452;2023-04-03T11:46:03;6.90;81.00
21612;DHT22;47005;52.292;13.452;2023-04-03T11:53:43;6.90;81.30
21612;DHT22;47005;52.292;13.452;2023-04-03T11:56:35;6.90;81.30
21612;DHT22;47005;52.292;13.452;2023-04-03T12:01:55;6.90;82.80
21612;DHT22;47005;52.292;13.452;2023-04-03T12:04:26;6.90;83.10
21612;DHT22;47005;52.292;13.452;2023-04-03T12:06:59;6.90;82.50
21612;DHT22;47005;52.292;13.452;2023-04-03T12:09:30;6.90;82.70
21612;DHT22;47005;52.292;13.452;2023-04-03T12:11:59;6.90;83.10
21612;DHT22;47005;52.292;13.452;2023-04-03T12:14:26;6.90;83.10
21612;DHT22;47005;52.292;13.452;2023-04-03T12:16:56;7.00;80.90
21612;DHT22;47005;52.292;13.452;2023-04-03T12:19:38;7.00;79.90
21612;DHT22;47005;52.292;13.452;2023-04-03T12:22:08;7.10;80.70
21612;DHT22;47005;52.292;13.452;2023-04-03T12:24:39;7.00;78.60
21612;DHT22;47005;52.292;13.452;2023-04-03T12:27:21;7.00;77.30
21612;DHT22;47005;52.292;13.452;2023-04-03T12:35:30;7.20;76.50
21612;DHT22;47005;52.292;13.452;2023-04-03T12:41:03;7.20;78.50
21612;DHT22;47005;52.292;13.452;2023-04-03T12:46:18;7.30;77.90
21612;DHT22;47005;52.292;13.452;2023-04-03T12:51:32;7.30;78.00
21612;DHT22;47005;52.292;13.452;2023-04-03T12:54:32;7.30;79.10
21612;DHT22;47005;52.292;13.452;2023-04-03T12:59:35;7.20;80.30
21612;DHT22;47005;52.292;13.452;2023-04-03T13:02:02;7.20;79.90
21612;DHT22;47005;52.292;13.452;2023-04-03T13:04:30;7.20;79.40
21612;DHT22;47005;52.292;13.452;2023-04-03T13:06:57;7.20;78.20
21612;DHT22;47005;52.292;13.452;2023-04-03T13:12:13;7.10;78.40
21612;DHT22;47005;52.292;13.452;2023-04-03T13:14:40;7.20;79.50
21612;DHT22;47005;52.292;13.452;2023-04-03T13:17:19;7.20;78.40
21612;DHT22;47005;52.292;13.452;2023-04-03T13:19:46;7.20;77.80
21612;DHT22;47005;52.292;13.452;2023-04-03T13:22:39;7.20;79.40
21612;DHT22;47005;52.292;13.452;2023-04-03T13:25:11;7.20;79.30
21612;DHT22;47005;52.292;13.452;2023-04-03T13:27:38;7.30;79.40
21612;DHT22;47005;52.292;13.452;2023-04-03T13:30:21;7.40;79.80
21612;DHT22;47005;52.292;13.452;2023-04-03T13:32:47;7.30;79.40
21612;DHT22;47005;52.292;13.452;2023-04-03T13:38:03;7.40;78.40
21612;DHT22;47005;52.292;13.452;2023-04-03T13:40:30;7.40;78.30
21612;DHT22;47005;52.292;13.452;2023-04-03T13:43:26;7.40;76.70
21612;DHT22;47005;52.292;13.452;2023-04-03T13:48:41;7.40;77.00
21612;DHT22;47005;52.292;13.452;2023-04-03T13:53:46;7.50;76.40
21612;DHT22;47005;52.292;13.452;2023-04-03T13:56:26;7.50;77.00
21612;DHT22;47005;52.292;13.452;2023-04-03T14:04:31;7.60;78.30
21612;DHT22;47005;52.292;13.452;2023-04-03T14:06:58;7.60;77.10
21612;DHT22;47005;52.292;13.452;2023-04-03T14:09:25;7.60;76.30
21612;DHT22;47005;52.292;13.452;2023-04-03T14:11:59;7.60;76.30
21612;DHT22;47005;52.292;13.452;2023-04-03T14:14:34;7.60;75.70
21612;DHT22;47005;52.292;13.452;2023-04-03T14:17:03;7.60;77.10
21612;DHT22;47005;52.292;13.452;2023-04-03T14:19:36;7.50;76.80
21612;DHT22;47005;52.292;13.452;2023-04-03T14:22:21;7.50;77.00
21612;DHT22;47005;52.292;13.452;2023-04-03T14:24:48;7.50;76.80
21612;DHT22;47005;52.292;13.452;2023-04-03T14:27:19;7.40;77.70
21612;DHT22;47005;52.292;13.452;2023-04-03T14:29:50;7.40;77.80
21612;DHT22;47005;52.292;13.452;2023-04-03T14:32:18;7.40;78.60
21612;DHT22;47005;52.292;13.452;2023-04-03T14:34:45;7.40;79.70
21612;DHT22;47005;52.292;13.452;2023-04-03T14:37:20;7.40;77.90
21612;DHT22;47005;52.292;13.452;2023-04-03T14:39:46;7.30;77.50
21612;DHT22;47005;52.292;13.452;2023-04-03T14:42:24;7.30;77.90
21612;DHT22;47005;52.292;13.452;2023-04-03T14:44:51;7.30;79.30
21612;DHT22;47005;52.292;13.452;2023-04-03T14:47:24;7.30;79.10
21612;DHT22;47005;52.292;13.452;2023-04-03T14:49:50;7.30;79.90
21612;DHT22;47005;52.292;13.452;2023-04-03T14:52:28;7.30;79.90
21612;DHT22;47005;52.292;13.452;2023-04-03T14:54:55;7.30;78.80
21612;DHT22;47005;52.292;13.452;2023-04-03T14:57:24;7.30;79.20
21612;DHT22;47005;52.292;13.452;2023-04-03T14:59:50;7.30;79.00
21612;DHT22;47005;52.292;13.452;2023-04-03T15:02:36;7.30;78.50
21612;DHT22;47005;52.292;13.452;2023-04-03T15:05:06;7.40;79.60
21612;DHT22;47005;52.292;13.452;2023-04-03T15:07:55;7.40;79.10
21612;DHT22;47005;52.292;13.452;2023-04-03T15:10:28;7.40;78.60
21612;DHT22;47005;52.292;13.452;2023-04-03T15:12:54;7.40;77.30
21612;DHT22;47005;52.292;13.452;2023-04-03T15:15:21;7.50;78.40
21612;DHT22;47005;52.292;13.452;2023-04-03T15:17:51;7.50;77.30
21612;DHT22;47005;52.292;13.452;2023-04-03T15:20:21;7.50;77.10
21612;DHT22;47005;52.292;13.452;2023-04-03T15:22:48;7.50;77.40
21612;DHT22;47005;52.292;13.452;2023-04-03T15:25:14;7.50;76.90
21612;DHT22;47005;52.292;13.452;2023-04-03T15:27:40;7.50;77.20
21612;DHT22;47005;52.292;13.452;2023-04-03T15:30:08;7.40;77.80
21612;DHT22;47005;52.292;13.452;2023-04-03T15:32:33;7.40;78.60
21612;DHT22;47005;52.292;13.452;2023-04-03T15:35:00;7.40;79.40
21612;DHT22;47005;52.292;13.452;2023-04-03T15:37:26;7.40;79.90
21612;DHT22;47005;52.292;13.452;2023-04-03T15:39:52;7.40;80.30
21612;DHT22;47005;52.292;13.452;2023-04-03T15:42:18;7.30;80.40
21612;DHT22;47005;52.292;13.452;2023-04-03T15:44:43;7.30;81.00
21612;DHT22;47005;52.292;13.452;2023-04-03T15:47:09;7.30;81.20
21612;DHT22;47005;52.292;13.452;2023-04-03T15:49:35;7.20;81.80
21612;DHT22;47005;52.292;13.452;2023-04-03T15:52:01;7.20;82.30
21612;DHT22;47005;52.292;13.452;2023-04-03T15:54:27;7.20;82.90
21612;DHT22;47005;52.292;13.452;2023-04-03T15:56:54;7.10;82.70
21612;DHT22;47005;52.292;13.452;2023-04-03T15:59:21;7.10;82.90
21612;DHT22;47005;52.292;13.452;2023-04-03T16:01:47;7.10;83.10
21612;DHT22;47005;52.292;13.452;2023-04-03T16:04:13;7.10;83.40
21612;DHT22;47005;52.292;13.452;2023-04-03T16:06:39;7.00;84.20
21612;DHT22;47005;52.292;13.452;2023-04-03T16:09:04;7.00;84.00
21612;DHT22;47005;52.292;13.452;2023-04-03T16:11:31;7.00;84.50
21612;DHT22;47005;52.292;13.452;2023-04-03T16:13:57;7.00;84.60
21612;DHT22;47005;52.292;13.452;2023-04-03T16:16:24;7.00;83.60
21612;DHT22;47005;52.292;13.452;2023-04-03T16:18:51;7.00;83.30
21612;DHT22;47005;52.292;13.452;2023-04-03T16:21:18;7.00;84.10
21612;DHT22;47005;52.292;13.452;2023-04-03T16:23:45;7.00;84.30
21612;DHT22;47005;52.292;13.452;2023-04-03T16:26:14;6.90;83.20
21612;DHT22;47005;52.292;13.452;2023-04-03T16:28:40;6.90;83.90
21612;DHT22;47005;52.292;13.452;2023-04-03T16:31:07;6.90;84.10
21612;DHT22;47005;52.292;13.452;2023-04-03T16:33:33;6.90;85.40
21612;DHT22;47005;52.292;13.452;2023-04-03T16:35:59;6.80;84.00
21612;DHT22;47005;52.292;13.452;2023-04-03T16:38:33;6.80;84.80
21612;DHT22;47005;52.292;13.452;2023-04-03T16:40:58;6.80;85.00
21612;DHT22;47005;52.292;13.452;2023-04-03T16:43:30;6.70;84.10
21612;DHT22;47005;52.292;13.452;2023-04-03T16:45:59;6.80;83.80
21612;DHT22;47005;52.292;13.452;2023-04-03T16:48:27;6.80;84.60
21612;DHT22;47005;52.292;13.452;2023-04-03T16:50:53;6.70;84.60
21612;DHT22;47005;52.292;13.452;2023-04-03T16:53:20;6.70;84.50
21612;DHT22;47005;52.292;13.452;2023-04-03T16:55:46;6.70;84.90
21612;DHT22;47005;52.292;13.452;2023-04-03T16:58:12;6.70;84.50
21612;DHT22;47005;52.292;13.452;2023-04-03T17:00:41;6.70;85.20
21612;DHT22;47005;52.292;13.452;2023-04-03T17:03:06;6.70;84.50
21612;DHT22;47005;52.292;13.452;2023-04-03T17:05:32;6.70;85.10
21612;DHT22;47005;52.292;13.452;2023-04-03T17:07:58;6.80;85.40
21612;DHT22;47005;52.292;13.452;2023-04-03T17:10:24;6.80;85.10
21612;DHT22;47005;52.292;13.452;2023-04-03T17:12:50;6.80;84.90
21612;DHT22;47005;52.292;13.452;2023-04-03T17:15:16;6.70;84.70